sensor_id;sensor_type;location;lat;lon;timestamp;pressure;altitude;pressure_sealevel;temperature;humidity
61506;BME280;47366;51.916;4.574;2024-03-29T00:02:02;99009.88;;;10.44;63.72
61506;BME280;47366;51.916;4.574;2024-03-29T00:04:28;98996.91;;;10.38;64.25
61506;BME280;47366;51.916;4.574;2024-03-29T00:06:53;98979.38;;;10.32;63.90
61506;BME280;47366;51.916;4.574;2024-03-29T00:09:19;98985.22;;;10.37;63.84
61506;BME280;47366;51.916;4.574;2024-03-29T00:11:44;98996.78;;;10.39;63.98
61506;BME280;47366;51.916;4.574;2024-03-29T00:14:10;99001.31;;;10.39;63.95
61506;BME280;47366;51.916;4.574;2024-03-29T00:16:35;98991.78;;;10.35;63.99
61506;BME280;47366;51.916;4.574;2024-03-29T00:19:01;98986.91;;;10.38;63.84
61506;BME280;47366;51.916;4.574;2024-03-29T00:21:26;98985.34;;;10.36;64.02
61506;BME280;47366;51.916;4.574;2024-03-29T00:23:51;99000.44;;;10.38;63.75
61506;BME280;47366;51.916;4.574;2024-03-29T00:26:17;99005.56;;;10.41;63.69
61506;BME280;47366;51.916;4.574;2024-03-29T00:28:42;99003.75;;;10.42;63.60
61506;BME280;47366;51.916;4.574;2024-03-29T00:31:07;99008.16;;;10.43;63.77
61506;BME280;47366;51.916;4.574;2024-03-29T00:33:33;99004.72;;;10.41;63.72
61506;BME280;47366;51.916;4.574;2024-03-29T00:35:58;99003.88;;;10.40;63.75
61506;BME280;47366;51.916;4.574;2024-03-29T00:38:23;99000.31;;;10.40;63.63
61506;BME280;47366;51.916;4.574;2024-03-29T00:40:49;99004.47;;;10.44;63.41
61506;BME280;47366;51.916;4.574;2024-03-29T00:43:14;99012.59;;;10.44;63.60
61506;BME280;47366;51.916;4.574;2024-03-29T00:45:40;99013.28;;;10.46;63.45
61506;BME280;47366;51.916;4.574;2024-03-29T00:48:05;99006.28;;;10.44;63.60
61506;BME280;47366;51.916;4.574;2024-03-29T00:50:31;99011.88;;;10.42;63.29
61506;BME280;47366;51.916;4.574;2024-03-29T00:52:57;99018.69;;;10.46;63.02
61506;BME280;47366;51.916;4.574;2024-03-29T00:55:22;99008.34;;;10.51;63.32
61506;BME280;47366;51.916;4.574;2024-03-29T00:57:48;99034.09;;;10.55;63.30
61506;BME280;47366;51.916;4.574;2024-03-29T01:00:13;99018.56;;;10.48;63.44
61506;BME280;47366;51.916;4.574;2024-03-29T01:02:38;99028.66;;;10.46;63.15
61506;BME280;47366;51.916;4.574;2024-03-29T01:05:05;99027.28;;;10.51;63.18
61506;BME280;47366;51.916;4.574;2024-03-29T01:07:31;99027.28;;;10.51;63.12
61506;BME280;47366;51.916;4.574;2024-03-29T01:09:56;99017.00;;;10.45;63.06
61506;BME280;47366;51.916;4.574;2024-03-29T01:12:21;99014.88;;;10.49;63.17
61506;BME280;47366;51.916;4.574;2024-03-29T01:14:47;99020.00;;;10.52;63.05
61506;BME280;47366;51.916;4.574;2024-03-29T01:17:12;99023.56;;;10.52;62.95
61506;BME280;47366;51.916;4.574;2024-03-29T01:19:37;99031.81;;;10.51;62.68
61506;BME280;47366;51.916;4.574;2024-03-29T01:22:03;99015.72;;;10.49;62.91
61506;BME280;47366;51.916;4.574;2024-03-29T01:24:29;99012.19;;;10.49;62.80
61506;BME280;47366;51.916;4.574;2024-03-29T01:26:54;99006.31;;;10.53;62.87
61506;BME280;47366;51.916;4.574;2024-03-29T01:29:20;98999.63;;;10.48;62.87
61506;BME280;47366;51.916;4.574;2024-03-29T01:31:45;99007.44;;;10.51;63.12
61506;BME280;47366;51.916;4.574;2024-03-29T01:34:10;99003.91;;;10.50;63.11
61506;BME280;47366;51.916;4.574;2024-03-29T01:36:36;98992.75;;;10.44;62.97
61506;BME280;47366;51.916;4.574;2024-03-29T01:39:01;98975.97;;;10.40;62.49
61506;BME280;47366;51.916;4.574;2024-03-29T01:41:27;98992.19;;;10.40;61.94
61506;BME280;47366;51.916;4.574;2024-03-29T01:43:53;98995.06;;;10.48;62.71
61506;BME280;47366;51.916;4.574;2024-03-29T01:46:23;98987.22;;;10.45;62.88
61506;BME280;47366;51.916;4.574;2024-03-29T01:48:53;98984.09;;;10.40;62.94
61506;BME280;47366;51.916;4.574;2024-03-29T01:51:21;98982.09;;;10.42;62.74
61506;BME280;47366;51.916;4.574;2024-03-29T01:53:50;98995.63;;;10.42;62.21
61506;BME280;47366;51.916;4.574;2024-03-29T01:56:18;99002.44;;;10.46;62.66
61506;BME280;47366;51.916;4.574;2024-03-29T01:58:45;99002.75;;;10.43;62.41
61506;BME280;47366;51.916;4.574;2024-03-29T02:01:11;98998.19;;;10.44;62.49
61506;BME280;47366;51.916;4.574;2024-03-29T02:03:37;99017.28;;;10.42;62.42
61506;BME280;47366;51.916;4.574;2024-03-29T02:06:02;99008.16;;;10.43;62.19
61506;BME280;47366;51.916;4.574;2024-03-29T02:08:29;99009.00;;;10.44;62.35
61506;BME280;47366;51.916;4.574;2024-03-29T02:10:54;99014.69;;;10.40;62.24
61506;BME280;47366;51.916;4.574;2024-03-29T02:13:21;99006.16;;;10.35;62.59
61506;BME280;47366;51.916;4.574;2024-03-29T02:15:46;99006.28;;;10.34;62.61
61506;BME280;47366;51.916;4.574;2024-03-29T02:18:11;98996.53;;;10.21;62.75
61506;BME280;47366;51.916;4.574;2024-03-29T02:20:37;99024.50;;;10.32;63.00
61506;BME280;47366;51.916;4.574;2024-03-29T02:23:06;99034.84;;;10.27;62.97
61506;BME280;47366;51.916;4.574;2024-03-29T02:25:33;99053.06;;;10.25;62.96
61506;BME280;47366;51.916;4.574;2024-03-29T02:27:59;99039.94;;;10.20;63.10
61506;BME280;47366;51.916;4.574;2024-03-29T02:30:26;99035.97;;;10.24;63.42
61506;BME280;47366;51.916;4.574;2024-03-29T02:32:53;99042.81;;;10.18;63.39
61506;BME280;47366;51.916;4.574;2024-03-29T02:35:18;99038.66;;;10.14;63.12
61506;BME280;47366;51.916;4.574;2024-03-29T02:37:44;99039.78;;;10.12;63.20
61506;BME280;47366;51.916;4.574;2024-03-29T02:40:10;99038.09;;;10.11;63.30
61506;BME280;47366;51.916;4.574;2024-03-29T02:42:35;99015.41;;;10.02;62.91
61506;BME280;47366;51.916;4.574;2024-03-29T02:45:02;99021.13;;;10.09;63.11
61506;BME280;47366;51.916;4.574;2024-03-29T02:47:27;99030.22;;;10.08;63.38
61506;BME280;47366;51.916;4.574;2024-03-29T02:49:52;99026.66;;;10.07;63.26
61506;BME280;47366;51.916;4.574;2024-03-29T02:52:18;99039.91;;;10.10;63.42
61506;BME280;47366;51.916;4.574;2024-03-29T02:54:43;99032.09;;;10.07;63.46
61506;BME280;47366;51.916;4.574;2024-03-29T02:57:09;99028.53;;;10.07;63.36
61506;BME280;47366;51.916;4.574;2024-03-29T02:59:34;99033.66;;;10.10;63.26
61506;BME280;47366;51.916;4.574;2024-03-29T03:01:59;99042.22;;;10.15;62.99
61506;BME280;47366;51.916;4.574;2024-03-29T03:04:25;99047.50;;;10.16;63.02
61506;BME280;47366;51.916;4.574;2024-03-29T03:06:50;99053.44;;;10.10;63.16
61506;BME280;47366;51.916;4.574;2024-03-29T03:09:16;99055.50;;;10.18;63.26
61506;BME280;47366;51.916;4.574;2024-03-29T03:11:59;99044.50;;;10.19;63.17
61506;BME280;47366;51.916;4.574;2024-03-29T03:14:25;99043.94;;;10.16;63.28
61506;BME280;47366;51.916;4.574;2024-03-29T03:16:52;99053.47;;;10.20;62.94
61506;BME280;47366;51.916;4.574;2024-03-29T03:19:17;99050.94;;;10.18;63.10
61506;BME280;47366;51.916;4.574;2024-03-29T03:21:42;99058.88;;;10.20;62.81
61506;BME280;47366;51.916;4.574;2024-03-29T03:24:08;99050.78;;;10.20;62.97
61506;BME280;47366;51.916;4.574;2024-03-29T03:26:34;99058.19;;;10.18;62.94
61506;BME280;47366;51.916;4.574;2024-03-29T03:28:59;99062.06;;;10.25;62.75
61506;BME280;47366;51.916;4.574;2024-03-29T03:31:25;99043.38;;;10.22;62.96
61506;BME280;47366;51.916;4.574;2024-03-29T03:33:50;99050.38;;;10.25;63.04
61506;BME280;47366;51.916;4.574;2024-03-29T03:36:15;99045.97;;;10.24;62.83
61506;BME280;47366;51.916;4.574;2024-03-29T03:38:41;99042.66;;;10.20;62.79
61506;BME280;47366;51.916;4.574;2024-03-29T03:41:07;99059.84;;;10.30;62.76
61506;BME280;47366;51.916;4.574;2024-03-29T03:43:32;99054.25;;;10.32;62.80
61506;BME280;47366;51.916;4.574;2024-03-29T03:46:01;99060.28;;;10.35;62.97
61506;BME280;47366;51.916;4.574;2024-03-29T03:48:27;99053.34;;;10.21;62.76
61506;BME280;47366;51.916;4.574;2024-03-29T03:50:56;99057.25;;;10.29;62.90
61506;BME280;47366;51.916;4.574;2024-03-29T03:53:21;99060.22;;;10.26;62.87
61506;BME280;47366;51.916;4.574;2024-03-29T03:55:47;99060.50;;;10.23;62.71
61506;BME280;47366;51.916;4.574;2024-03-29T03:58:13;99058.75;;;10.21;62.77
61506;BME280;47366;51.916;4.574;2024-03-29T04:00:38;99062.06;;;10.25;63.05
61506;BME280;47366;51.916;4.574;2024-03-29T04:03:04;99064.06;;;10.23;62.99
61506;BME280;47366;51.916;4.574;2024-03-29T04:05:29;99074.44;;;10.18;62.89
61506;BME280;47366;51.916;4.574;2024-03-29T04:07:57;99064.13;;;10.12;62.99
61506;BME280;47366;51.916;4.574;2024-03-29T04:10:22;99067.44;;;10.15;62.98
61506;BME280;47366;51.916;4.574;2024-03-29T04:12:47;99067.16;;;10.18;63.21
61506;BME280;47366;51.916;4.574;2024-03-29T04:15:13;99073.81;;;10.14;63.27
61506;BME280;47366;51.916;4.574;2024-03-29T04:17:38;99064.88;;;10.14;63.49
61506;BME280;47366;51.916;4.574;2024-03-29T04:20:04;99082.94;;;10.13;63.45
61506;BME280;47366;51.916;4.574;2024-03-29T04:22:30;99080.25;;;10.13;63.47
61506;BME280;47366;51.916;4.574;2024-03-29T04:24:56;99068.38;;;10.05;63.79
61506;BME280;47366;51.916;4.574;2024-03-29T04:27:21;99095.16;;;10.08;64.13
61506;BME280;47366;51.916;4.574;2024-03-29T04:29:46;99094.84;;;10.01;64.86
61506;BME280;47366;51.916;4.574;2024-03-29T04:32:13;99087.72;;;10.00;65.09
61506;BME280;47366;51.916;4.574;2024-03-29T04:34:38;99073.47;;;9.98;65.47
61506;BME280;47366;51.916;4.574;2024-03-29T04:37:03;99084.28;;;9.98;66.09
61506;BME280;47366;51.916;4.574;2024-03-29T04:39:29;99079.81;;;9.87;66.61
61506;BME280;47366;51.916;4.574;2024-03-29T04:41:54;99082.78;;;9.84;66.55
61506;BME280;47366;51.916;4.574;2024-03-29T04:44:27;99075.63;;;9.73;67.42
61506;BME280;47366;51.916;4.574;2024-03-29T04:46:53;99087.28;;;9.74;68.21
61506;BME280;47366;51.916;4.574;2024-03-29T04:49:21;99094.88;;;9.80;67.27
61506;BME280;47366;51.916;4.574;2024-03-29T04:51:50;99100.91;;;9.72;68.67
61506;BME280;47366;51.916;4.574;2024-03-29T04:54:17;99105.09;;;9.76;68.32
61506;BME280;47366;51.916;4.574;2024-03-29T04:56:42;99112.34;;;9.76;68.51
61506;BME280;47366;51.916;4.574;2024-03-29T04:59:08;99105.75;;;9.69;69.31
61506;BME280;47366;51.916;4.574;2024-03-29T05:01:35;99085.75;;;9.60;68.91
61506;BME280;47366;51.916;4.574;2024-03-29T05:04:00;99112.16;;;9.68;69.62
61506;BME280;47366;51.916;4.574;2024-03-29T05:06:26;99098.31;;;9.61;70.56
61506;BME280;47366;51.916;4.574;2024-03-29T05:08:51;99101.41;;;9.56;71.36
61506;BME280;47366;51.916;4.574;2024-03-29T05:11:17;99099.59;;;9.46;72.64
61506;BME280;47366;51.916;4.574;2024-03-29T05:13:43;99084.66;;;9.42;73.58
61506;BME280;47366;51.916;4.574;2024-03-29T05:16:08;99092.50;;;9.45;74.84
61506;BME280;47366;51.916;4.574;2024-03-29T05:18:34;99111.91;;;9.39;73.34
61506;BME280;47366;51.916;4.574;2024-03-29T05:20:59;99101.19;;;9.27;75.97
61506;BME280;47366;51.916;4.574;2024-03-29T05:23:25;99100.91;;;9.30;75.52
61506;BME280;47366;51.916;4.574;2024-03-29T05:25:50;99101.09;;;9.18;77.08
61506;BME280;47366;51.916;4.574;2024-03-29T05:28:17;99115.81;;;9.25;77.40
61506;BME280;47366;51.916;4.574;2024-03-29T05:30:43;99115.47;;;9.18;76.40
61506;BME280;47366;51.916;4.574;2024-03-29T05:33:08;99104.03;;;9.14;76.96
61506;BME280;47366;51.916;4.574;2024-03-29T05:35:33;99103.06;;;9.16;78.02
61506;BME280;47366;51.916;4.574;2024-03-29T05:37:59;99100.97;;;9.08;77.85
61506;BME280;47366;51.916;4.574;2024-03-29T05:40:24;99105.28;;;9.10;79.13
61506;BME280;47366;51.916;4.574;2024-03-29T05:42:53;99121.66;;;8.98;79.30
61506;BME280;47366;51.916;4.574;2024-03-29T05:47:49;99133.00;;;9.12;80.15
61506;BME280;47366;51.916;4.574;2024-03-29T05:50:14;99146.13;;;9.17;80.10
61506;BME280;47366;51.916;4.574;2024-03-29T05:52:39;99140.38;;;9.10;80.36
61506;BME280;47366;51.916;4.574;2024-03-29T05:55:05;99147.41;;;9.13;79.57
61506;BME280;47366;51.916;4.574;2024-03-29T05:57:33;99159.66;;;9.17;80.32
61506;BME280;47366;51.916;4.574;2024-03-29T05:59:59;99154.38;;;9.16;80.29
61506;BME280;47366;51.916;4.574;2024-03-29T06:02:25;99161.75;;;9.13;81.34
61506;BME280;47366;51.916;4.574;2024-03-29T06:04:50;99155.34;;;9.14;81.35
61506;BME280;47366;51.916;4.574;2024-03-29T06:07:15;99157.47;;;9.11;82.57
61506;BME280;47366;51.916;4.574;2024-03-29T06:09:41;99164.69;;;9.10;80.97
61506;BME280;47366;51.916;4.574;2024-03-29T06:12:06;99148.16;;;9.04;82.08
61506;BME280;47366;51.916;4.574;2024-03-29T06:14:34;99160.28;;;9.09;82.46
61506;BME280;47366;51.916;4.574;2024-03-29T06:17:19;99172.94;;;9.09;83.46
61506;BME280;47366;51.916;4.574;2024-03-29T06:19:48;99194.19;;;9.13;83.35
61506;BME280;47366;51.916;4.574;2024-03-29T06:22:13;99201.91;;;9.18;82.78
61506;BME280;47366;51.916;4.574;2024-03-29T06:24:39;99200.44;;;9.14;82.13
61506;BME280;47366;51.916;4.574;2024-03-29T06:27:05;99206.81;;;9.13;83.04
61506;BME280;47366;51.916;4.574;2024-03-29T06:29:30;99200.44;;;9.14;84.27
61506;BME280;47366;51.916;4.574;2024-03-29T06:31:56;99197.25;;;9.09;84.60
61506;BME280;47366;51.916;4.574;2024-03-29T06:34:21;99192.06;;;9.17;82.37
61506;BME280;47366;51.916;4.574;2024-03-29T06:36:46;99204.59;;;9.18;84.13
61506;BME280;47366;51.916;4.574;2024-03-29T06:39:12;99172.91;;;9.20;83.16
61506;BME280;47366;51.916;4.574;2024-03-29T06:41:37;99173.16;;;9.17;82.87
61506;BME280;47366;51.916;4.574;2024-03-29T06:44:03;99187.19;;;9.11;85.17
61506;BME280;47366;51.916;4.574;2024-03-29T06:46:28;99175.38;;;9.12;84.85
61506;BME280;47366;51.916;4.574;2024-03-29T06:48:53;99172.41;;;9.15;85.37
61506;BME280;47366;51.916;4.574;2024-03-29T06:51:19;99192.31;;;9.14;85.88
61506;BME280;47366;51.916;4.574;2024-03-29T06:53:44;99189.97;;;9.21;83.61
61506;BME280;47366;51.916;4.574;2024-03-29T06:56:09;99185.16;;;9.24;85.19
61506;BME280;47366;51.916;4.574;2024-03-29T06:58:35;99186.63;;;9.28;84.52
61506;BME280;47366;51.916;4.574;2024-03-29T07:01:00;99188.13;;;9.21;83.47
61506;BME280;47366;51.916;4.574;2024-03-29T07:03:25;99190.44;;;9.26;85.61
61506;BME280;47366;51.916;4.574;2024-03-29T07:05:51;99185.78;;;9.28;84.11
61506;BME280;47366;51.916;4.574;2024-03-29T07:08:16;99177.31;;;9.21;83.63
61506;BME280;47366;51.916;4.574;2024-03-29T07:10:42;99178.81;;;9.14;85.35
61506;BME280;47366;51.916;4.574;2024-03-29T07:13:07;99186.44;;;9.20;85.57
61506;BME280;47366;51.916;4.574;2024-03-29T07:15:33;99183.56;;;9.22;85.24
61506;BME280;47366;51.916;4.574;2024-03-29T07:18:00;99197.81;;;9.35;84.32
61506;BME280;47366;51.916;4.574;2024-03-29T07:20:26;99209.34;;;9.37;85.02
61506;BME280;47366;51.916;4.574;2024-03-29T07:22:52;99198.84;;;9.44;84.29
61506;BME280;47366;51.916;4.574;2024-03-29T07:25:17;99210.75;;;9.52;84.21
61506;BME280;47366;51.916;4.574;2024-03-29T07:27:43;99193.56;;;9.53;82.89
61506;BME280;47366;51.916;4.574;2024-03-29T07:30:09;99201.25;;;9.58;83.68
61506;BME280;47366;51.916;4.574;2024-03-29T07:32:36;99198.16;;;9.63;83.25
61506;BME280;47366;51.916;4.574;2024-03-29T07:35:02;99216.72;;;9.67;83.87
61506;BME280;47366;51.916;4.574;2024-03-29T07:37:28;99206.94;;;9.87;82.97
61506;BME280;47366;51.916;4.574;2024-03-29T07:39:53;99210.59;;;9.86;83.22
61506;BME280;47366;51.916;4.574;2024-03-29T07:42:19;99210.81;;;9.94;82.96
61506;BME280;47366;51.916;4.574;2024-03-29T07:44:44;99206.94;;;10.29;82.13
61506;BME280;47366;51.916;4.574;2024-03-29T07:47:10;99193.38;;;10.50;80.11
61506;BME280;47366;51.916;4.574;2024-03-29T07:49:38;99207.56;;;10.94;79.75
61506;BME280;47366;51.916;4.574;2024-03-29T07:52:04;99208.59;;;11.13;78.18
61506;BME280;47366;51.916;4.574;2024-03-29T07:54:31;99203.78;;;11.36;77.46
61506;BME280;47366;51.916;4.574;2024-03-29T07:56:56;99195.66;;;11.26;76.38
61506;BME280;47366;51.916;4.574;2024-03-29T07:59:22;99191.09;;;11.36;76.47
61506;BME280;47366;51.916;4.574;2024-03-29T08:01:47;99202.09;;;11.44;75.71
61506;BME280;47366;51.916;4.574;2024-03-29T08:04:13;99201.69;;;11.49;75.87
61506;BME280;47366;51.916;4.574;2024-03-29T08:06:39;99208.06;;;11.29;75.47
61506;BME280;47366;51.916;4.574;2024-03-29T08:09:04;99207.53;;;11.35;76.09
61506;BME280;47366;51.916;4.574;2024-03-29T08:11:29;99219.94;;;11.37;76.03
61506;BME280;47366;51.916;4.574;2024-03-29T08:13:54;99208.66;;;11.42;75.65
61506;BME280;47366;51.916;4.574;2024-03-29T08:16:20;99209.09;;;11.37;75.79
61506;BME280;47366;51.916;4.574;2024-03-29T08:18:46;99203.03;;;11.14;76.16
61506;BME280;47366;51.916;4.574;2024-03-29T08:21:14;99204.50;;;11.28;76.34
61506;BME280;47366;51.916;4.574;2024-03-29T08:23:40;99212.00;;;11.05;76.27
61506;BME280;47366;51.916;4.574;2024-03-29T08:26:06;99230.81;;;10.97;76.82
61506;BME280;47366;51.916;4.574;2024-03-29T08:28:33;99232.50;;;10.98;77.52
61506;BME280;47366;51.916;4.574;2024-03-29T08:31:02;99241.03;;;10.93;77.74
61506;BME280;47366;51.916;4.574;2024-03-29T08:33:28;99244.34;;;10.97;77.72
61506;BME280;47366;51.916;4.574;2024-03-29T08:35:53;99248.56;;;10.80;78.37
61506;BME280;47366;51.916;4.574;2024-03-29T08:38:19;99256.81;;;10.78;78.84
61506;BME280;47366;51.916;4.574;2024-03-29T08:40:44;99242.19;;;10.91;78.55
61506;BME280;47366;51.916;4.574;2024-03-29T08:43:13;99247.50;;;11.02;77.79
61506;BME280;47366;51.916;4.574;2024-03-29T08:45:39;99246.06;;;10.98;78.81
61506;BME280;47366;51.916;4.574;2024-03-29T08:48:08;99235.53;;;11.04;78.38
61506;BME280;47366;51.916;4.574;2024-03-29T08:50:34;99241.28;;;11.21;78.22
61506;BME280;47366;51.916;4.574;2024-03-29T08:53:03;99236.75;;;11.31;77.10
61506;BME280;47366;51.916;4.574;2024-03-29T08:55:33;99241.84;;;11.24;77.34
61506;BME280;47366;51.916;4.574;2024-03-29T08:58:00;99256.72;;;11.30;77.61
61506;BME280;47366;51.916;4.574;2024-03-29T09:00:26;99259.03;;;11.44;77.09
61506;BME280;47366;51.916;4.574;2024-03-29T09:02:52;99245.09;;;11.59;76.92
61506;BME280;47366;51.916;4.574;2024-03-29T09:05:17;99262.34;;;11.77;75.91
61506;BME280;47366;51.916;4.574;2024-03-29T09:07:44;99235.09;;;11.69;75.92
61506;BME280;47366;51.916;4.574;2024-03-29T09:10:10;99247.50;;;11.72;76.05
61506;BME280;47366;51.916;4.574;2024-03-29T09:12:36;99245.41;;;11.85;75.47
61506;BME280;47366;51.916;4.574;2024-03-29T09:15:01;99256.81;;;12.08;75.01
61506;BME280;47366;51.916;4.574;2024-03-29T09:17:27;99276.69;;;12.18;74.22
61506;BME280;47366;51.916;4.574;2024-03-29T09:19:52;99272.25;;;12.17;74.26
61506;BME280;47366;51.916;4.574;2024-03-29T09:22:18;99283.84;;;12.19;74.54
61506;BME280;47366;51.916;4.574;2024-03-29T09:24:44;99269.84;;;12.24;73.91
61506;BME280;47366;51.916;4.574;2024-03-29T09:27:09;99272.13;;;12.28;73.76
61506;BME280;47366;51.916;4.574;2024-03-29T09:29:34;99293.13;;;12.07;73.48
61506;BME280;47366;51.916;4.574;2024-03-29T09:32:00;99288.13;;;11.93;74.37
61506;BME280;47366;51.916;4.574;2024-03-29T09:34:27;99287.50;;;11.79;74.50
61506;BME280;47366;51.916;4.574;2024-03-29T09:36:53;99308.22;;;11.80;74.53
61506;BME280;47366;51.916;4.574;2024-03-29T09:39:18;99299.06;;;11.72;74.96
61506;BME280;47366;51.916;4.574;2024-03-29T09:41:45;99311.47;;;11.74;75.59
61506;BME280;47366;51.916;4.574;2024-03-29T09:44:11;99325.63;;;11.68;74.87
61506;BME280;47366;51.916;4.574;2024-03-29T09:46:37;99305.06;;;11.75;74.93
61506;BME280;47366;51.916;4.574;2024-03-29T09:49:08;99301.78;;;11.81;74.71
61506;BME280;47366;51.916;4.574;2024-03-29T09:51:36;99308.63;;;11.76;75.17
61506;BME280;47366;51.916;4.574;2024-03-29T09:54:02;99298.16;;;11.52;75.16
61506;BME280;47366;51.916;4.574;2024-03-29T09:56:29;99288.72;;;11.56;75.73
61506;BME280;47366;51.916;4.574;2024-03-29T09:58:55;99291.28;;;11.47;75.93
61506;BME280;47366;51.916;4.574;2024-03-29T10:01:20;99299.31;;;11.49;76.61
61506;BME280;47366;51.916;4.574;2024-03-29T10:03:48;99293.25;;;11.36;76.58
61506;BME280;47366;51.916;4.574;2024-03-29T10:06:16;99293.38;;;11.34;76.94
61506;BME280;47366;51.916;4.574;2024-03-29T10:08:45;99306.94;;;11.34;76.97
61506;BME280;47366;51.916;4.574;2024-03-29T10:11:11;99304.56;;;11.51;76.81
61506;BME280;47366;51.916;4.574;2024-03-29T10:13:36;99300.59;;;11.64;76.37
61506;BME280;47366;51.916;4.574;2024-03-29T10:16:03;99292.50;;;11.84;75.82
61506;BME280;47366;51.916;4.574;2024-03-29T10:18:29;99301.69;;;12.02;75.71
61506;BME280;47366;51.916;4.574;2024-03-29T10:21:05;99298.00;;;12.32;74.41
61506;BME280;47366;51.916;4.574;2024-03-29T10:23:32;99289.84;;;12.32;73.39
61506;BME280;47366;51.916;4.574;2024-03-29T10:25:58;99299.94;;;12.60;73.40
61506;BME280;47366;51.916;4.574;2024-03-29T10:28:34;99310.78;;;12.69;72.83
61506;BME280;47366;51.916;4.574;2024-03-29T10:31:01;99302.94;;;12.66;71.79
61506;BME280;47366;51.916;4.574;2024-03-29T10:33:31;99316.03;;;12.90;72.70
61506;BME280;47366;51.916;4.574;2024-03-29T10:35:58;99298.47;;;12.75;72.88
61506;BME280;47366;51.916;4.574;2024-03-29T10:38:25;99295.19;;;12.71;72.91
61506;BME280;47366;51.916;4.574;2024-03-29T10:40:52;99301.38;;;12.64;72.53
61506;BME280;47366;51.916;4.574;2024-03-29T10:43:18;99295.69;;;12.38;72.64
61506;BME280;47366;51.916;4.574;2024-03-29T10:45:44;99316.25;;;12.40;73.37
61506;BME280;47366;51.916;4.574;2024-03-29T10:48:11;99306.84;;;12.44;73.38
61506;BME280;47366;51.916;4.574;2024-03-29T10:50:41;99321.25;;;12.64;72.24
61506;BME280;47366;51.916;4.574;2024-03-29T10:53:08;99323.03;;;12.93;71.41
61506;BME280;47366;51.916;4.574;2024-03-29T10:55:34;99327.97;;;13.17;69.73
61506;BME280;47366;51.916;4.574;2024-03-29T10:58:04;99340.63;;;13.46;69.25
61506;BME280;47366;51.916;4.574;2024-03-29T11:00:41;99347.50;;;13.68;66.93
61506;BME280;47366;51.916;4.574;2024-03-29T11:03:19;99351.13;;;13.86;66.11
61506;BME280;47366;51.916;4.574;2024-03-29T11:05:49;99321.66;;;13.81;65.72
61506;BME280;47366;51.916;4.574;2024-03-29T11:08:23;99337.53;;;13.86;64.93
61506;BME280;47366;51.916;4.574;2024-03-29T11:10:54;99344.63;;;13.97;66.24
61506;BME280;47366;51.916;4.574;2024-03-29T11:13:42;99345.34;;;14.17;64.34
61506;BME280;47366;51.916;4.574;2024-03-29T11:16:10;99339.50;;;14.12;63.79
61506;BME280;47366;51.916;4.574;2024-03-29T11:18:37;99335.38;;;13.90;64.46
61506;BME280;47366;51.916;4.574;2024-03-29T11:21:04;99330.53;;;13.84;64.72
61506;BME280;47366;51.916;4.574;2024-03-29T11:23:31;99325.00;;;13.75;63.44
61506;BME280;47366;51.916;4.574;2024-03-29T11:25:58;99329.31;;;13.96;63.57
61506;BME280;47366;51.916;4.574;2024-03-29T11:28:32;99339.28;;;14.41;63.84
61506;BME280;47366;51.916;4.574;2024-03-29T11:31:03;99336.53;;;14.77;63.38
61506;BME280;47366;51.916;4.574;2024-03-29T11:36:23;99331.13;;;15.37;60.31
61506;BME280;47366;51.916;4.574;2024-03-29T11:38:51;99339.22;;;15.55;60.74
61506;BME280;47366;51.916;4.574;2024-03-29T11:41:27;99336.75;;;15.36;60.64
61506;BME280;47366;51.916;4.574;2024-03-29T11:43:54;99339.88;;;15.49;60.52
61506;BME280;47366;51.916;4.574;2024-03-29T11:46:20;99342.25;;;15.78;60.81
61506;BME280;47366;51.916;4.574;2024-03-29T11:48:46;99351.16;;;15.80;59.24
61506;BME280;47366;51.916;4.574;2024-03-29T11:51:14;99341.13;;;15.97;57.98
61506;BME280;47366;51.916;4.574;2024-03-29T11:53:40;99340.16;;;16.23;59.87
61506;BME280;47366;51.916;4.574;2024-03-29T11:56:06;99348.28;;;15.98;59.28
61506;BME280;47366;51.916;4.574;2024-03-29T11:58:32;99342.63;;;15.83;59.01
61506;BME280;47366;51.916;4.574;2024-03-29T12:00:59;99364.03;;;16.04;59.39
61506;BME280;47366;51.916;4.574;2024-03-29T12:03:26;99376.25;;;15.92;57.68
61506;BME280;47366;51.916;4.574;2024-03-29T12:05:53;99380.16;;;15.81;59.23
61506;BME280;47366;51.916;4.574;2024-03-29T12:08:21;99372.66;;;15.83;58.99
61506;BME280;47366;51.916;4.574;2024-03-29T12:10:47;99350.78;;;15.49;58.99
61506;BME280;47366;51.916;4.574;2024-03-29T12:13:16;99356.22;;;15.41;59.78
61506;BME280;47366;51.916;4.574;2024-03-29T12:15:41;99339.06;;;15.22;58.84
61506;BME280;47366;51.916;4.574;2024-03-29T12:18:07;99344.16;;;15.17;60.00
61506;BME280;47366;51.916;4.574;2024-03-29T12:20:33;99360.25;;;15.02;59.67
61506;BME280;47366;51.916;4.574;2024-03-29T12:22:59;99356.22;;;14.89;58.51
61506;BME280;47366;51.916;4.574;2024-03-29T12:25:26;99356.88;;;15.08;59.03
61506;BME280;47366;51.916;4.574;2024-03-29T12:27:52;99346.50;;;15.12;59.01
61506;BME280;47366;51.916;4.574;2024-03-29T12:30:18;99350.63;;;15.16;59.36
61506;BME280;47366;51.916;4.574;2024-03-29T12:32:44;99354.47;;;15.32;59.00
61506;BME280;47366;51.916;4.574;2024-03-29T12:35:14;99340.19;;;15.38;58.45
61506;BME280;47366;51.916;4.574;2024-03-29T12:37:50;99348.81;;;15.59;58.00
61506;BME280;47366;51.916;4.574;2024-03-29T12:40:17;99348.84;;;15.67;57.19
61506;BME280;47366;51.916;4.574;2024-03-29T12:42:48;99356.91;;;15.77;55.14
61506;BME280;47366;51.916;4.574;2024-03-29T12:45:15;99345.50;;;15.82;54.20
61506;BME280;47366;51.916;4.574;2024-03-29T12:47:42;99341.13;;;15.97;54.80
61506;BME280;47366;51.916;4.574;2024-03-29T12:50:08;99341.44;;;15.94;55.40
61506;BME280;47366;51.916;4.574;2024-03-29T12:52:37;99353.06;;;15.96;54.77
61506;BME280;47366;51.916;4.574;2024-03-29T12:55:03;99356.44;;;15.82;53.47
61506;BME280;47366;51.916;4.574;2024-03-29T12:57:30;99359.22;;;16.06;55.82
61506;BME280;47366;51.916;4.574;2024-03-29T12:59:55;99351.25;;;16.29;52.46
61506;BME280;47366;51.916;4.574;2024-03-29T13:02:21;99356.25;;;16.50;52.65
61506;BME280;47366;51.916;4.574;2024-03-29T13:04:48;99366.00;;;16.53;51.72